메인 페이지
METAR-TAF:

METAR-TAF

공항 :

시알코트 국제공항

시알코트, 파키스탄

위도: 32-32N, 경도: 74-22E, 고도: 255m

현재 날씨관측

예보는 22분 전, 00:00시(UTC)에 발표되었습니다.
무풍
온도 12°C
습도 82%
기압 1017 hPa
시정: 3500m
연기

METAR: OPST 020000Z 00000KT 3500 FU NSC 12/09 Q1017 NOSIG RH82

시각: 05:22 (00:22 UTC)

예보

예보는 2 시간 37분 전, 21:45시(UTC)에 발표되었습니다.
예보 대상 시간: 02일 00시부터 03일 06시까지 (UTC)
북서6kt
시정: 4000m
연기
일시적
02일 00시부터 02일 04시까지 (UTC)
kt
시정: 0600m
안개
전환 중
02일 04시부터 02일 06시까지 (UTC)
여러 방향의 바람 3kt
시정: 1500m
박무

TAF: OPST 012145Z 0200/0306 31006KT 4000 FU NSC TX24/0210Z TN07/0201Z TEMPO 0200/0204 00000KT 0600 FG BECMG 0204/0206 VRB03KT 1500 BR NSC

4,000개 이상의 공항 관측 자료 및 예보 (METAR 및 TAF 보고).

지도상에서 검색 가능한 기상관측소가 노란 점과 빨간 점으로 표시되어 있습니다.

기상관측소 명을 보려면 표시 위로 마우스를 이동하세요.

날씨 관측과 예보를 보려면 클릭하세요.

지도 변경 : 확대하려면 엑스 표시가 있는 녹색 버튼, 축소하려면 빼기 표시가 있는 녹색 버튼, 다음 페이지의 지도를 보려면 녹색 화살표를 클릭하세요.


METAR-TAF: